createdAt,value
2022-08-23T00:01:44.626Z,99269.81
2022-08-23T00:04:19.685Z,99259.22
2022-08-23T00:06:48.393Z,99272.97
2022-08-23T00:09:20.942Z,99267.38
2022-08-23T00:12:19.097Z,99266.63
2022-08-23T00:14:50.050Z,99274.25
2022-08-23T00:17:34.540Z,99277.03
2022-08-23T00:20:05.116Z,99282.81
2022-08-23T00:22:32.222Z,99274.59
2022-08-23T00:25:01.412Z,99280.00
2022-08-23T00:27:29.008Z,99280.59
2022-08-23T00:29:57.677Z,99281.50
2022-08-23T00:32:33.945Z,99275.34
2022-08-23T00:35:02.136Z,99282.22
2022-08-23T00:37:32.945Z,99282.22
2022-08-23T00:40:10.603Z,99271.25
2022-08-23T00:43:06.172Z,99267.69
2022-08-23T00:46:00.557Z,99273.69
2022-08-23T00:48:27.697Z,99265.16
2022-08-23T00:51:02.875Z,99267.56
2022-08-23T00:53:34.205Z,99266.41
2022-08-23T00:56:04.591Z,99260.66
2022-08-23T00:58:31.932Z,99256.38
2022-08-23T01:01:02.191Z,99271.25
2022-08-23T01:03:38.563Z,99258.44
2022-08-23T01:06:16.250Z,99255.09
2022-08-23T01:08:48.695Z,99267.94
2022-08-23T01:11:24.854Z,99263.84
2022-08-23T01:13:58.349Z,99275.97
2022-08-23T01:16:48.998Z,99269.81
2022-08-23T01:19:39.524Z,99266.25
2022-08-23T01:22:17.233Z,99265.69
2022-08-23T01:25:06.019Z,99263.09
2022-08-23T01:27:38.486Z,99265.88
2022-08-23T01:30:09.772Z,99265.16
2022-08-23T01:32:50.059Z,99264.59
2022-08-23T01:37:52.409Z,99258.47
2022-08-23T01:40:20.131Z,99262.56
2022-08-23T01:42:49.505Z,99261.81
2022-08-23T01:45:19.599Z,99264.81
2022-08-23T01:47:49.814Z,99254.97
2022-08-23T01:50:19.431Z,99263.91
2022-08-23T01:52:49.545Z,99263.75
2022-08-23T01:55:22.035Z,99267.25
2022-08-23T01:57:55.803Z,99265.41
2022-08-23T02:00:41.813Z,99275.88
2022-08-23T02:03:11.602Z,99268.59
2022-08-23T02:05:40.903Z,99275.13
2022-08-23T02:08:28.988Z,99268.44
2022-08-23T02:10:59.938Z,99275.13
2022-08-23T02:13:27.294Z,99270.31
2022-08-23T02:15:55.224Z,99269.56
2022-08-23T02:18:23.869Z,99274.22
2022-08-23T02:20:52.853Z,99277.03
2022-08-23T02:23:21.418Z,99275.88
2022-08-23T02:25:51.543Z,99275.19
2022-08-23T02:28:21.432Z,99285.03
2022-08-23T02:30:49.919Z,99286.69
2022-08-23T02:33:19.481Z,99278.31
2022-08-23T02:35:47.531Z,99282.59
2022-08-23T02:38:17.481Z,99290.97
2022-08-23T02:40:53.065Z,99296.00
2022-08-23T02:43:27.703Z,99293.75
2022-08-23T02:45:57.865Z,99298.78
2022-08-23T02:48:24.985Z,99300.25
2022-08-23T02:51:01.970Z,99301.94
2022-08-23T02:53:29.468Z,99306.03
2022-08-23T02:55:57.361Z,99313.63
2022-08-23T02:58:26.406Z,99311.78
2022-08-23T03:00:54.108Z,99309.75
2022-08-23T03:03:24.095Z,99316.78
2022-08-23T03:05:52.515Z,99314.19
2022-08-23T03:08:21.515Z,99312.72
2022-08-23T03:10:51.287Z,99321.59
2022-08-23T03:13:20.482Z,99317.34
2022-08-23T03:15:49.953Z,99320.13
2022-08-23T03:18:17.567Z,99320.84
2022-08-23T03:20:48.707Z,99321.41
2022-08-23T03:23:16.534Z,99319.38
2022-08-23T03:25:43.534Z,99315.06
2022-08-23T03:28:22.548Z,99320.84
2022-08-23T03:30:50.224Z,99320.84
2022-08-23T03:33:17.208Z,99320.63
2022-08-23T03:35:47.036Z,99323.41
2022-08-23T03:38:15.476Z,99320.81
2022-08-23T03:40:44.187Z,99319.13
2022-08-23T03:43:11.882Z,99323.03
2022-08-23T03:45:38.826Z,99321.19
2022-08-23T03:48:06.924Z,99319.13
2022-08-23T03:50:36.278Z,99322.50
2022-08-23T03:53:03.905Z,99329.75
2022-08-23T03:55:31.239Z,99321.78
2022-08-23T03:58:00.611Z,99329.38
2022-08-23T04:00:28.512Z,99329.91
2022-08-23T04:02:55.767Z,99326.72
2022-08-23T04:05:24.980Z,99340.88
2022-08-23T04:07:59.517Z,99332.31
2022-08-23T04:10:26.770Z,99338.66
2022-08-23T04:12:56.088Z,99340.88
2022-08-23T04:15:24.891Z,99338.84
2022-08-23T04:17:52.414Z,99351.31
2022-08-23T04:20:19.674Z,99342.38
2022-08-23T04:23:10.065Z,99343.72
2022-08-23T04:25:47.660Z,99345.94
2022-08-23T04:28:15.429Z,99351.84
2022-08-23T04:30:42.608Z,99347.03
2022-08-23T04:33:13.323Z,99349.81
2022-08-23T04:35:43.779Z,99351.31
2022-08-23T04:38:24.053Z,99350.00
2022-08-23T04:41:20.191Z,99362.09
2022-08-23T04:43:47.348Z,99366.56
2022-08-23T04:46:16.459Z,99363.97
2022-08-23T04:48:47.504Z,99352.44
2022-08-23T04:51:16.628Z,99359.50
2022-08-23T04:53:44.303Z,99358.75
2022-08-23T04:56:43.655Z,99366.94
2022-08-23T04:59:13.187Z,99378.84
2022-08-23T05:01:43.020Z,99372.53
2022-08-23T05:04:10.802Z,99378.69
2022-08-23T05:06:39.683Z,99378.47
2022-08-23T05:09:06.734Z,99376.22
2022-08-23T05:11:37.124Z,99383.13
2022-08-23T05:14:04.784Z,99379.97
2022-08-23T05:16:34.303Z,99390.19
2022-08-23T05:19:06.407Z,99385.94
2022-08-23T05:21:42.111Z,99392.59
2022-08-23T05:24:09.321Z,99389.06
2022-08-23T05:26:41.609Z,99393.91
2022-08-23T05:29:09.370Z,99389.03
2022-08-23T05:31:46.834Z,99391.81
2022-08-23T05:34:17.575Z,99399.63
2022-08-23T05:36:55.708Z,99399.81
2022-08-23T05:39:32.822Z,99405.75
2022-08-23T05:42:13.860Z,99404.25
2022-08-23T05:44:43.363Z,99398.84
2022-08-23T05:47:15.996Z,99408.94
2022-08-23T05:50:13.293Z,99415.44
2022-08-23T05:52:40.550Z,99420.31
2022-08-23T05:55:08.181Z,99424.38
2022-08-23T05:57:38.427Z,99413.38
2022-08-23T06:00:11.791Z,99421.56
2022-08-23T06:02:46.417Z,99419.28
2022-08-23T06:05:13.985Z,99425.28
2022-08-23T06:07:42.517Z,99414.84
2022-08-23T06:10:16.130Z,99422.25
2022-08-23T06:12:48.330Z,99420.78
2022-08-23T06:15:15.847Z,99425.41
2022-08-23T06:17:47.063Z,99429.88
2022-08-23T06:20:16.174Z,99422.41
2022-08-23T06:23:15.294Z,99424.81
2022-08-23T06:25:43.160Z,99429.44
2022-08-23T06:28:17.747Z,99417.69
2022-08-23T06:30:46.954Z,99430.13
2022-08-23T06:33:26.943Z,99426.56
2022-08-23T06:36:14.009Z,99434.94
2022-08-23T06:39:00.131Z,99433.28
2022-08-23T06:41:50.685Z,99437.38
2022-08-23T06:44:30.277Z,99433.28
2022-08-23T06:47:08.659Z,99431.41
2022-08-23T06:49:37.053Z,99438.28
2022-08-23T06:52:04.530Z,99435.88
2022-08-23T06:54:49.177Z,99443.28
2022-08-23T06:57:36.656Z,99443.25
2022-08-23T07:00:33.076Z,99444.50
2022-08-23T07:03:10.376Z,99442.75
2022-08-23T07:05:57.366Z,99442.38
2022-08-23T07:08:28.552Z,99449.16
2022-08-23T07:10:58.797Z,99451.84
2022-08-23T07:13:26.146Z,99449.88
2022-08-23T07:16:03.024Z,99452.31
2022-08-23T07:18:35.877Z,99450.34
2022-08-23T07:21:05.651Z,99461.63
2022-08-23T07:23:34.895Z,99452.31
2022-08-23T07:26:10.886Z,99459.34
2022-08-23T07:28:41.638Z,99461.00
2022-08-23T07:31:18.495Z,99455.72
2022-08-23T07:33:48.310Z,99458.28
2022-08-23T07:36:22.435Z,99457.59
2022-08-23T07:38:53.465Z,99451.72
2022-08-23T07:41:24.177Z,99463.41
2022-08-23T07:43:55.193Z,99467.03
2022-08-23T07:46:26.836Z,99474.25
2022-08-23T07:49:00.924Z,99475.91
2022-08-23T07:51:36.059Z,99477.22
2022-08-23T07:54:08.606Z,99481.88
2022-08-23T07:56:44.249Z,99485.53
2022-08-23T07:59:34.440Z,99488.88
2022-08-23T08:02:20.076Z,99484.63
2022-08-23T08:04:47.057Z,99483.38
2022-08-23T08:07:21.597Z,99475.59
2022-08-23T08:09:57.780Z,99482.84
2022-08-23T08:12:26.536Z,99484.63
2022-08-23T08:14:59.977Z,99484.25
2022-08-23T08:17:35.693Z,99479.97
2022-08-23T08:20:20.036Z,99476.97
2022-08-23T08:22:58.391Z,99485.53
2022-08-23T08:26:05.663Z,99487.59
2022-08-23T08:28:35.748Z,99496.50
2022-08-23T08:31:04.194Z,99496.28
2022-08-23T08:33:34.266Z,99495.81
2022-08-23T08:36:04.520Z,99504.22
2022-08-23T08:38:38.975Z,99509.56
2022-08-23T08:41:25.617Z,99514.38
2022-08-23T08:44:16.318Z,99513.16
2022-08-23T08:46:57.292Z,99522.25
2022-08-23T08:49:34.451Z,99533.47
2022-08-23T08:52:32.204Z,99540.31
2022-08-23T08:55:14.196Z,99539.78
2022-08-23T08:57:46.424Z,99537.13
2022-08-23T09:00:23.405Z,99545.34
2022-08-23T09:02:52.117Z,99549.31
2022-08-23T09:05:27.390Z,99554.56
2022-08-23T09:08:03.217Z,99557.13
2022-08-23T09:11:01.959Z,99558.75
2022-08-23T09:13:53.784Z,99555.56
2022-08-23T09:16:41.198Z,99565.72
2022-08-23T09:19:09.164Z,99558.38
2022-08-23T09:21:59.658Z,99560.47
2022-08-23T09:24:28.149Z,99562.06
2022-08-23T09:27:04.082Z,99567.69
2022-08-23T09:29:37.963Z,99570.22
2022-08-23T09:32:25.333Z,99574.28
2022-08-23T09:35:18.440Z,99577.13
2022-08-23T09:37:56.298Z,99573.25
2022-08-23T09:40:38.919Z,99577.38
2022-08-23T09:43:13.225Z,99576.97
2022-08-23T09:46:02.243Z,99581.91
2022-08-23T09:48:45.529Z,99581.25
2022-08-23T09:51:37.846Z,99589.16
2022-08-23T09:54:31.200Z,99583.38
2022-08-23T09:57:02.729Z,99593.34
2022-08-23T09:59:48.084Z,99593.34
2022-08-23T10:02:30.508Z,99594.94
2022-08-23T10:05:16.785Z,99595.34
2022-08-23T10:08:00.017Z,99594.72
2022-08-23T10:10:31.731Z,99590.94
2022-08-23T10:13:03.688Z,99593.84
2022-08-23T10:15:36.521Z,99597.53
2022-08-23T10:18:11.212Z,99602.44
2022-08-23T10:21:06.236Z,99605.72
2022-08-23T10:23:45.630Z,99606.09
2022-08-23T10:26:25.008Z,99606.09
2022-08-23T10:29:39.131Z,99598.19
2022-08-23T10:32:25.275Z,99603.19
2022-08-23T10:34:59.190Z,99597.25
2022-08-23T10:37:59.126Z,99601.00
2022-08-23T10:40:38.586Z,99599.53
2022-08-23T10:43:15.412Z,99601.00
2022-08-23T10:45:47.009Z,99603.34
2022-08-23T10:48:58.391Z,99602.81
2022-08-23T10:51:36.845Z,99603.72
2022-08-23T10:54:35.215Z,99599.22
2022-08-23T10:57:08.918Z,99598.53
2022-08-23T10:59:37.444Z,99594.97
2022-08-23T11:02:26.820Z,99602.47
2022-08-23T11:05:22.370Z,99604.31
2022-08-23T11:08:32.509Z,99606.28
2022-08-23T11:11:02.983Z,99594.94
2022-08-23T11:13:35.251Z,99587.69
2022-08-23T11:16:31.211Z,99595.78
2022-08-23T11:18:59.113Z,99593.44
2022-08-23T11:21:40.808Z,99599.56
2022-08-23T11:24:13.186Z,99608.88
2022-08-23T11:26:41.518Z,99613.91
2022-08-23T11:29:14.466Z,99612.03
2022-08-23T11:31:58.799Z,99611.25
2022-08-23T11:34:34.219Z,99613.63
2022-08-23T11:37:20.127Z,99612.75
2022-08-23T11:39:58.102Z,99617.63
2022-08-23T11:42:39.677Z,99610.25
2022-08-23T11:45:38.053Z,99609.78
2022-08-23T11:48:13.394Z,99610.53
2022-08-23T11:50:51.883Z,99598.97
2022-08-23T11:53:30.511Z,99600.16
2022-08-23T11:56:03.400Z,99614.00
2022-08-23T11:58:52.123Z,99613.03
2022-08-23T12:01:31.941Z,99607.41
2022-08-23T12:04:10.376Z,99621.94
2022-08-23T12:06:55.997Z,99619.03
2022-08-23T12:09:23.093Z,99623.91
2022-08-23T12:11:56.326Z,99623.59
2022-08-23T12:14:31.757Z,99622.41
2022-08-23T12:17:12.265Z,99635.78
2022-08-23T12:19:46.651Z,99633.25
2022-08-23T12:22:21.655Z,99631.97
2022-08-23T12:25:00.763Z,99638.06
2022-08-23T12:27:36.783Z,99633.38
2022-08-23T12:30:20.433Z,99637.56
2022-08-23T12:32:51.034Z,99628.69
2022-08-23T12:35:34.841Z,99629.59
2022-08-23T12:38:39.590Z,99627.25
2022-08-23T12:41:28.712Z,99632.44
2022-08-23T12:44:06.678Z,99638.09
2022-08-23T12:46:38.818Z,99627.84
2022-08-23T12:49:12.582Z,99631.53
2022-08-23T12:51:48.580Z,99630.34
2022-08-23T12:54:19.572Z,99631.91
2022-08-23T12:56:49.951Z,99623.03
2022-08-23T12:59:37.639Z,99635.81
2022-08-23T13:02:10.546Z,99641.09
2022-08-23T13:04:40.211Z,99638.13
2022-08-23T13:07:12.588Z,99641.56
2022-08-23T13:09:42.407Z,99641.28
2022-08-23T13:12:13.487Z,99650.06
2022-08-23T13:14:40.464Z,99637.63
2022-08-23T13:17:27.622Z,99642.22
2022-08-23T13:20:25.783Z,99635.81
2022-08-23T13:23:09.515Z,99640.16
2022-08-23T13:25:39.086Z,99636.13
2022-08-23T13:28:26.559Z,99643.97
2022-08-23T13:31:05.859Z,99647.13
2022-08-23T13:33:33.098Z,99638.19
2022-08-23T13:36:16.317Z,99644.00
2022-08-23T13:38:44.851Z,99648.13
2022-08-23T13:41:29.356Z,99640.63
2022-08-23T13:43:56.509Z,99650.53
2022-08-23T13:46:29.136Z,99646.69
2022-08-23T13:49:03.552Z,99642.38
2022-08-23T13:52:41.332Z,99642.34
2022-08-23T13:54:54.281Z,99639.22
2022-08-23T13:57:26.447Z,99646.94
2022-08-23T13:59:59.089Z,99638.34
2022-08-23T14:02:26.978Z,99644.56
2022-08-23T14:04:56.536Z,99635.38
2022-08-23T14:07:24.557Z,99624.72
2022-08-23T14:09:57.356Z,99636.44
2022-08-23T14:12:34.423Z,99627.09
2022-08-23T14:15:03.587Z,99636.72
2022-08-23T14:17:40.150Z,99645.03
2022-08-23T14:22:57.325Z,99643.69
2022-08-23T14:25:24.758Z,99641.91
2022-08-23T14:27:54.783Z,99642.63
2022-08-23T14:30:32.442Z,99646.94
2022-08-23T14:33:01.193Z,99657.16
2022-08-23T14:35:28.637Z,99653.88
2022-08-23T14:38:03.511Z,99660.38
2022-08-23T14:40:31.686Z,99658.84
2022-08-23T14:42:58.990Z,99661.50
2022-08-23T14:45:26.395Z,99666.97
2022-08-23T14:47:53.733Z,99669.34
2022-08-23T14:50:21.438Z,99665.75
2022-08-23T14:52:48.527Z,99672.38
2022-08-23T14:55:15.960Z,99669.88
2022-08-23T14:57:43.259Z,99670.91
2022-08-23T15:00:14.288Z,99675.34
2022-08-23T15:02:50.119Z,99680.13
2022-08-23T15:05:18.407Z,99681.03
2022-08-23T15:07:45.678Z,99682.75
2022-08-23T15:10:49.641Z,99683.69
2022-08-23T15:13:20.643Z,99684.91
2022-08-23T15:15:52.749Z,99686.66
2022-08-23T15:18:20.205Z,99688.44
2022-08-23T15:20:48.328Z,99688.88
2022-08-23T15:23:18.406Z,99685.91
2022-08-23T15:25:45.575Z,99683.16
2022-08-23T15:28:15.987Z,99678.72
2022-08-23T15:30:47.326Z,99691.00
2022-08-23T15:33:14.719Z,99688.34
2022-08-23T15:35:46.633Z,99682.97
2022-08-23T15:38:17.940Z,99684.00
2022-08-23T15:40:49.388Z,99684.56
2022-08-23T15:43:16.341Z,99671.19
2022-08-23T15:45:43.649Z,99670.59
2022-08-23T15:48:24.513Z,99671.25
2022-08-23T15:50:54.967Z,99652.88
2022-08-23T15:53:25.730Z,99657.91
2022-08-23T15:55:53.969Z,99653.94
2022-08-23T15:58:26.974Z,99656.31
2022-08-23T16:00:55.131Z,99651.84
2022-08-23T16:03:23.191Z,99641.94
2022-08-23T16:05:53.747Z,99658.31
2022-08-23T16:08:28.162Z,99652.50
2022-08-23T16:10:56.096Z,99656.50
2022-08-23T16:13:26.820Z,99658.72
2022-08-23T16:15:54.892Z,99657.97
2022-08-23T16:18:24.675Z,99665.25
2022-08-23T16:20:54.098Z,99657.81
2022-08-23T16:23:22.464Z,99663.84
2022-08-23T16:25:49.783Z,99666.78
2022-08-23T16:28:19.240Z,99657.38
2022-08-23T16:30:46.385Z,99659.06
2022-08-23T16:33:14.060Z,99655.44
2022-08-23T16:35:41.214Z,99651.22
2022-08-23T16:38:09.124Z,99648.50
2022-08-23T16:40:36.551Z,99655.13
2022-08-23T16:43:04.162Z,99656.41
2022-08-23T16:45:33.665Z,99660.38
2022-08-23T16:48:01.003Z,99658.75
2022-08-23T16:50:28.273Z,99654.59
2022-08-23T16:53:05.024Z,99660.06
2022-08-23T16:55:34.390Z,99667.81
2022-08-23T16:58:01.897Z,99668.81
2022-08-23T17:00:29.213Z,99672.59
2022-08-23T17:02:56.964Z,99667.06
2022-08-23T17:05:24.701Z,99679.16
2022-08-23T17:07:54.242Z,99666.31
2022-08-23T17:10:23.248Z,99672.50
2022-08-23T17:12:56.498Z,99679.44
2022-08-23T17:15:28.157Z,99674.22
2022-08-23T17:17:56.472Z,99676.53
2022-08-23T17:20:27.590Z,99682.31
2022-08-23T17:22:55.808Z,99687.56
2022-08-23T17:25:24.289Z,99684.59
2022-08-23T17:27:55.015Z,99684.44
2022-08-23T17:30:24.430Z,99694.16
2022-08-23T17:32:52.191Z,99681.47
2022-08-23T17:35:23.201Z,99696.06
2022-08-23T17:37:53.218Z,99693.47
2022-08-23T17:40:24.879Z,99696.69
2022-08-23T17:42:52.551Z,99701.53
2022-08-23T17:45:19.766Z,99713.91
2022-08-23T17:47:47.731Z,99711.69
2022-08-23T17:50:20.874Z,99713.72
2022-08-23T17:52:48.479Z,99709.94
2022-08-23T17:55:18.510Z,99722.63
2022-08-23T17:57:48.355Z,99718.53
2022-08-23T18:00:18.494Z,99715.16
2022-08-23T18:02:45.470Z,99722.25
2022-08-23T18:05:13.426Z,99720.19
2022-08-23T18:07:40.480Z,99723.56
2022-08-23T18:10:09.428Z,99721.16
2022-08-23T18:12:36.664Z,99721.75
2022-08-23T18:15:04.613Z,99727.34
2022-08-23T18:17:36.630Z,99737.06
2022-08-23T18:20:05.828Z,99737.22
2022-08-23T18:22:33.098Z,99733.34
2022-08-23T18:25:00.406Z,99733.94
2022-08-23T18:27:46.449Z,99735.81
2022-08-23T18:30:13.848Z,99740.09
2022-08-23T18:32:41.482Z,99736.38
2022-08-23T18:35:11.694Z,99740.25
2022-08-23T18:37:39.103Z,99745.84
2022-08-23T18:40:09.834Z,99744.56
2022-08-23T18:42:37.919Z,99747.94
2022-08-23T18:45:06.395Z,99744.56
2022-08-23T18:47:35.130Z,99755.56
2022-08-23T18:50:02.551Z,99758.34
2022-08-23T18:52:31.101Z,99768.25
2022-08-23T18:54:59.330Z,99764.13
2022-08-23T18:57:26.738Z,99763.22
2022-08-23T18:59:54.144Z,99766.59
2022-08-23T19:02:24.262Z,99768.63
2022-08-23T19:04:53.529Z,99770.69
2022-08-23T19:07:20.884Z,99783.91
2022-08-23T19:09:48.289Z,99788.97
2022-08-23T19:12:16.022Z,99790.25
2022-08-23T19:14:43.571Z,99793.25
2022-08-23T19:17:11.461Z,99791.91
2022-08-23T19:19:39.710Z,99791.00
2022-08-23T19:22:06.960Z,99794.00
2022-08-23T19:24:34.645Z,99798.09
2022-08-23T19:27:02.127Z,99788.22
2022-08-23T19:29:29.596Z,99791.00
2022-08-23T19:31:59.520Z,99785.81
2022-08-23T19:34:27.776Z,99799.47
2022-08-23T19:37:00.642Z,99807.88
2022-08-23T19:39:30.277Z,99797.06
2022-08-23T19:41:58.267Z,99808.09
2022-08-23T19:44:28.530Z,99810.31
2022-08-23T19:46:59.475Z,99807.69
2022-08-23T19:49:26.830Z,99801.91
2022-08-23T19:51:54.614Z,99800.44
2022-08-23T19:54:22.281Z,99806.03
2022-08-23T19:56:58.443Z,99807.38
2022-08-23T19:59:28.343Z,99812.03
2022-08-23T20:01:58.209Z,99809.41
2022-08-23T20:04:28.612Z,99813.88
2022-08-23T20:06:58.063Z,99807.50
2022-08-23T20:09:27.409Z,99804.72
2022-08-23T20:11:55.345Z,99805.84
2022-08-23T20:14:24.957Z,99808.66
2022-08-23T20:16:54.549Z,99814.63
2022-08-23T20:19:22.163Z,99809.19
2022-08-23T20:21:50.873Z,99805.06
2022-08-23T20:24:28.816Z,99805.59
2022-08-23T20:27:06.404Z,99808.19
2022-08-23T20:29:33.784Z,99807.78
2022-08-23T20:32:06.266Z,99803.84
2022-08-23T20:34:34.847Z,99811.50
2022-08-23T20:37:11.097Z,99815.94
2022-08-23T20:39:38.475Z,99813.50
2022-08-23T20:42:05.888Z,99801.72
2022-08-23T20:44:35.017Z,99798.91
2022-08-23T20:47:03.279Z,99812.94
2022-08-23T20:49:32.620Z,99799.84
2022-08-23T20:51:59.714Z,99802.06
2022-08-23T20:54:26.977Z,99804.69
2022-08-23T20:56:53.980Z,99803.94
2022-08-23T20:59:20.977Z,99805.44
2022-08-23T21:01:49.057Z,99811.06
2022-08-23T21:04:19.177Z,99813.28
2022-08-23T21:06:50.022Z,99818.13
2022-08-23T21:09:24.586Z,99828.22
2022-08-23T21:11:56.039Z,99826.16
2022-08-23T21:14:23.565Z,99831.94
2022-08-23T21:16:54.626Z,99832.50
2022-08-23T21:19:22.711Z,99834.00
2022-08-23T21:21:50.506Z,99830.78
2022-08-23T21:24:17.882Z,99841.09
2022-08-23T21:26:45.404Z,99835.31
2022-08-23T21:29:12.857Z,99834.91
2022-08-23T21:31:40.453Z,99837.53
2022-08-23T21:34:10.559Z,99830.47
2022-08-23T21:36:37.901Z,99839.03
2022-08-23T21:39:05.502Z,99837.72
2022-08-23T21:41:51.242Z,99837.53
2022-08-23T21:44:20.339Z,99825.56
2022-08-23T21:46:48.863Z,99829.13
2022-08-23T21:49:16.542Z,99820.72
2022-08-23T21:51:45.084Z,99818.50
2022-08-23T21:54:13.219Z,99818.50
2022-08-23T21:56:40.657Z,99825.25
2022-08-23T21:59:10.797Z,99813.91
2022-08-23T22:01:38.454Z,99818.44
2022-08-23T22:04:07.955Z,99830.03
2022-08-23T22:06:37.154Z,99831.16
2022-08-23T22:09:06.997Z,99832.50
2022-08-23T22:11:40.675Z,99826.72
2022-08-23T22:14:15.492Z,99816.25
2022-08-23T22:16:44.408Z,99812.13
2022-08-23T22:19:13.190Z,99812.69
2022-08-23T22:21:40.237Z,99812.88
2022-08-23T22:24:07.944Z,99810.41
2022-08-23T22:26:35.283Z,99809.66
2022-08-23T22:29:04.926Z,99804.25
2022-08-23T22:31:32.331Z,99804.81
2022-08-23T22:33:59.615Z,99801.44
2022-08-23T22:36:29.858Z,99799.94
2022-08-23T22:38:57.317Z,99800.31
2022-08-23T22:41:27.666Z,99809.50
2022-08-23T22:43:55.837Z,99811.00
2022-08-23T22:46:23.661Z,99804.81
2022-08-23T22:48:53.828Z,99805.53
2022-08-23T22:51:25.672Z,99798.81
2022-08-23T22:53:56.932Z,99800.47
2022-08-23T22:56:33.192Z,99802.88
2022-08-23T22:59:00.484Z,99802.47
2022-08-23T23:01:31.459Z,99801.91
2022-08-23T23:04:02.780Z,99802.66
2022-08-23T23:06:33.840Z,99800.56
2022-08-23T23:09:01.394Z,99800.56
2022-08-23T23:11:31.406Z,99799.84
2022-08-23T23:13:58.740Z,99805.78
2022-08-23T23:16:32.203Z,99796.06
2022-08-23T23:19:18.069Z,99794.91
2022-08-23T23:21:54.191Z,99792.03
2022-08-23T23:24:31.426Z,99792.41
2022-08-23T23:26:59.567Z,99796.84
2022-08-23T23:29:27.689Z,99798.84
2022-08-23T23:31:55.490Z,99790.66
2022-08-23T23:34:23.517Z,99799.06
2022-08-23T23:36:55.939Z,99791.66
2022-08-23T23:39:23.885Z,99793.69
2022-08-23T23:41:51.916Z,99794.44
2022-08-23T23:44:24.345Z,99793.34
2022-08-23T23:47:01.486Z,99790.00
2022-08-23T23:49:32.283Z,99788.31
2022-08-23T23:52:01.157Z,99785.28
2022-08-23T23:54:28.303Z,99789.75
2022-08-23T23:56:55.707Z,99785.06
2022-08-23T23:59:22.895Z,99781.50
